Time;durP1;ratioP1;P1;durP2;ratioP2;P2;SDS_P1;SDS_P2;PMS_P1;PMS_P2;Temp;Humidity;BMP_temperature;BMP_pressure;BME280_temperature;BME280_humidity;BME280_pressure;Samples;Min_cycle;Max_cycle;Signal;HPM_P1;HPM_P2
2023/05/22 00:01:21;;;;;;;;;8.40;8.00;;;;;17.99;57.15;98977.28;6049583;28;96257;-63
2023/05/22 00:04:28;;;;;;;;;8.25;8.25;;;;;17.96;57.42;98978.66;6044314;28;96276;-63
2023/05/22 00:07:32;;;;;;;;;10.00;8.40;;;;;17.93;57.50;98970.19;6071069;28;99237;-63
2023/05/22 00:10:37;;;;;;;;;11.00;10.75;;;;;17.85;58.19;98963.34;6059511;28;96493;-63
2023/05/22 00:13:40;;;;;;;;;8.75;8.75;;;;;17.85;57.55;98965.25;6065151;28;96476;-63
2023/05/22 00:16:45;;;;;;;;;10.00;10.00;;;;;17.79;57.83;98961.66;6059887;28;96462;-63
2023/05/22 00:19:48;;;;;;;;;11.00;10.00;;;;;17.80;57.48;98965.22;6058118;28;96358;-63
2023/05/22 00:22:52;;;;;;;;;10.00;9.00;;;;;17.75;57.55;98952.38;6056036;28;96253;-63
2023/05/22 00:25:57;;;;;;;;;8.20;7.80;;;;;17.73;57.56;98954.56;6044725;28;96384;-63
2023/05/22 00:29:00;;;;;;;;;8.00;8.00;;;;;17.72;57.58;98959.19;6057894;28;97199;-63
2023/05/22 00:32:05;;;;;;;;;8.00;8.00;;;;;17.68;57.49;98960.81;6044334;28;96596;-63
2023/05/22 00:35:09;;;;;;;;;10.00;9.60;;;;;17.66;57.47;98960.25;6044069;28;96314;-63
2023/05/22 00:38:29;;;;;;;;;8.00;8.00;;;;;17.61;57.25;98954.78;6061007;28;96837;-63
2023/05/22 00:41:34;;;;;;;;;9.00;8.00;;;;;17.57;56.70;98953.66;6053734;28;96801;-63
2023/05/22 00:44:37;;;;;;;;;9.75;8.50;;;;;17.58;56.55;98960.75;6065474;28;96391;-63
2023/05/22 00:47:41;;;;;;;;;9.00;8.60;;;;;17.62;56.14;98956.44;6061294;28;96409;-63
2023/05/22 00:50:45;;;;;;;;;11.00;10.00;;;;;17.60;56.21;98952.31;6067588;28;96382;-63
2023/05/22 00:53:50;;;;;;;;;10.00;9.00;;;;;17.55;55.93;98958.53;6064299;28;96281;-63
2023/05/22 00:56:55;;;;;;;;;7.40;7.40;;;;;17.50;55.97;98963.13;6041734;28;96657;-63
2023/05/22 00:59:59;;;;;;;;;9.00;9.00;;;;;17.44;56.04;98956.03;6066930;28;96294;-63
2023/05/22 01:03:06;;;;;;;;;9.00;9.00;;;;;17.42;55.91;98955.47;6047868;28;97320;-63
2023/05/22 01:06:10;;;;;;;;;11.20;11.00;;;;;17.35;56.38;98952.97;6051149;28;96663;-63
2023/05/22 01:09:14;;;;;;;;;9.00;8.60;;;;;17.29;56.18;98959.50;6066793;28;97007;-63
2023/05/22 01:12:25;;;;;;;;;8.00;7.00;;;;;17.27;56.14;98958.94;6065698;28;96481;-63
2023/05/22 01:15:35;;;;;;;;;9.40;9.00;;;;;17.09;55.84;98929.41;6066591;28;96548;-63
2023/05/22 01:18:46;;;;;;;;;8.00;7.80;;;;;17.19;56.11;98945.81;6049504;28;96627;-63
2023/05/22 01:22:06;;;;;;;;;10.40;9.40;;;;;17.19;56.21;98940.34;6054946;28;96613;-63
2023/05/22 01:25:44;;;;;;;;;8.60;8.00;;;;;17.06;56.15;98928.00;6066533;28;96399;-63
2023/05/22 01:29:30;;;;;;;;;8.00;8.00;;;;;17.13;56.05;98950.41;6038443;28;96689;-63
2023/05/22 01:32:38;;;;;;;;;9.00;8.00;;;;;17.00;56.60;98948.13;6044377;28;97824;-63
2023/05/22 01:35:43;;;;;;;;;6.60;6.60;;;;;16.91;56.96;98946.97;6061567;28;96636;-63
2023/05/22 01:38:47;;;;;;;;;11.00;9.00;;;;;16.88;56.88;98944.78;6040358;28;96687;-63
2023/05/22 01:41:51;;;;;;;;;8.00;8.00;;;;;16.87;56.88;98943.13;6051011;28;96864;-63
2023/05/22 01:44:54;;;;;;;;;7.75;7.25;;;;;16.82;57.07;98940.34;6052588;28;96248;-63
2023/05/22 01:47:59;;;;;;;;;8.80;8.80;;;;;16.74;57.07;98936.22;6050593;28;96781;-63
2023/05/22 01:51:07;;;;;;;;;11.60;11.00;;;;;16.66;57.44;98942.16;6073872;28;97536;-63
2023/05/22 01:54:17;;;;;;;;;12.00;10.25;;;;;16.56;57.93;98935.78;6052788;28;98363;-63
2023/05/22 01:57:27;;;;;;;;;11.00;11.00;;;;;16.63;57.59;98939.13;6058214;28;96524;-63
2023/05/22 02:00:32;;;;;;;;;11.75;11.00;;;;;16.60;57.57;98945.91;6059143;28;96463;-63
2023/05/22 02:03:39;;;;;;;;;9.20;9.20;;;;;16.59;57.37;98940.72;6059426;28;96776;-63
2023/05/22 02:06:44;;;;;;;;;9.00;9.00;;;;;16.54;57.74;98949.63;6068606;28;96343;-63
2023/05/22 02:09:50;;;;;;;;;9.00;8.60;;;;;16.48;58.09;98947.94;6068711;28;96503;-63
2023/05/22 02:12:54;;;;;;;;;11.00;11.00;;;;;16.46;58.07;98950.94;6053790;28;96464;-63
2023/05/22 02:15:58;;;;;;;;;9.75;9.00;;;;;16.45;58.03;98954.72;6062674;28;96342;-63
2023/05/22 02:19:05;;;;;;;;;10.00;10.00;;;;;16.34;58.15;98941.28;6045634;28;97455;-63
2023/05/22 02:22:12;;;;;;;;;10.60;10.60;;;;;16.33;58.42;98951.34;6052469;28;96627;-63
2023/05/22 02:25:16;;;;;;;;;12.00;12.00;;;;;16.32;58.64;98957.84;6051388;28;96465;-63
2023/05/22 02:28:20;;;;;;;;;11.75;11.00;;;;;16.32;58.61;98955.13;6068195;28;96277;-63
2023/05/22 02:31:25;;;;;;;;;11.00;11.00;;;;;16.26;58.64;98958.91;6062511;28;96466;-63
2023/05/22 02:34:30;;;;;;;;;12.00;11.80;;;;;16.15;58.76;98948.97;6037466;28;96701;-63
2023/05/22 02:37:34;;;;;;;;;9.80;8.80;;;;;16.18;58.86;98953.06;6046644;28;96251;-63
2023/05/22 02:40:38;;;;;;;;;12.00;12.00;;;;;16.14;58.92;98946.50;6067867;28;96846;-63
2023/05/22 02:43:42;;;;;;;;;14.00;13.20;;;;;16.12;59.16;98944.06;6055953;28;96290;-63
2023/05/22 02:46:46;;;;;;;;;12.00;11.80;;;;;16.10;59.08;98942.66;6047153;28;96527;-63
2023/05/22 02:49:50;;;;;;;;;14.00;13.25;;;;;16.06;59.17;98946.97;6065265;28;97103;-63
2023/05/22 02:52:54;;;;;;;;;11.60;10.40;;;;;16.01;59.09;98945.03;6068135;28;96382;-63
2023/05/22 02:55:58;;;;;;;;;13.00;13.00;;;;;15.97;59.25;98936.56;6069075;28;96725;-63
2023/05/22 02:59:02;;;;;;;;;11.00;10.40;;;;;15.98;59.14;98940.91;6053997;28;96407;-63
2023/05/22 03:02:06;;;;;;;;;10.20;9.20;;;;;15.90;59.33;98933.22;6071239;28;96713;-63
2023/05/22 03:05:10;;;;;;;;;11.40;11.00;;;;;15.91;59.05;98931.31;6057502;28;96519;-62
2023/05/22 03:08:15;;;;;;;;;11.00;10.80;;;;;15.82;59.09;98930.97;6068174;28;96809;-63
2023/05/22 03:11:18;;;;;;;;;14.00;13.00;;;;;15.72;58.72;98908.25;6068001;28;98102;-62
2023/05/22 03:14:22;;;;;;;;;11.25;11.25;;;;;15.84;58.70;98925.25;6069140;28;96291;-63
2023/05/22 03:17:25;;;;;;;;;11.00;11.00;;;;;15.82;58.29;98924.69;6066609;28;96867;-63
2023/05/22 03:20:31;;;;;;;;;12.00;11.00;;;;;15.78;58.10;98927.09;6050823;28;98038;-63
2023/05/22 03:23:35;;;;;;;;;11.00;10.00;;;;;15.75;57.75;98922.16;6051711;28;97141;-63
2023/05/22 03:26:38;;;;;;;;;10.40;10.00;;;;;15.78;57.78;98927.09;6084424;28;96663;-63
2023/05/22 03:29:44;;;;;;;;;9.00;9.00;;;;;15.83;57.32;98939.94;6038851;28;96971;-63
2023/05/22 03:32:48;;;;;;;;;9.20;9.00;;;;;15.87;57.56;98933.72;6044008;28;96733;-63
2023/05/22 03:35:53;;;;;;;;;10.40;9.40;;;;;15.91;57.16;98928.59;6070093;28;97116;-64
2023/05/22 03:38:56;;;;;;;;;13.00;11.00;;;;;15.93;56.75;98932.69;6058282;28;96673;-63
2023/05/22 03:42:00;;;;;;;;;11.00;10.40;;;;;15.98;56.50;98937.38;6080307;28;97093;-63
2023/05/22 03:45:05;;;;;;;;;13.40;12.00;;;;;16.01;56.45;98929.53;6072331;28;96550;-63
2023/05/22 03:48:09;;;;;;;;;11.00;10.00;;;;;16.09;56.21;98927.41;6069806;28;96785;-63
2023/05/22 03:51:15;;;;;;;;;11.00;10.25;;;;;16.20;55.98;98932.72;6060906;28;96857;-62
2023/05/22 03:54:22;;;;;;;;;11.00;10.00;;;;;16.27;55.80;98938.75;6049954;28;99288;-63
2023/05/22 03:57:25;;;;;;;;;8.00;8.00;;;;;16.36;55.24;98939.97;6078513;28;96777;-63
2023/05/22 04:00:28;;;;;;;;;11.40;11.00;;;;;16.40;54.78;98937.53;6061449;28;96307;-63
2023/05/22 04:03:31;;;;;;;;;8.40;8.00;;;;;16.44;54.84;98933.22;6080548;28;96660;-63
2023/05/22 04:06:41;;;;;;;;;10.00;8.80;;;;;16.43;54.71;98929.66;6058787;28;96313;-63
2023/05/22 04:09:48;;;;;;;;;9.00;8.00;;;;;16.44;54.31;98938.66;6046872;28;96494;-63
2023/05/22 04:12:51;;;;;;;;;9.80;8.20;;;;;16.52;54.34;98934.66;6057175;28;99012;-63
2023/05/22 04:15:55;;;;;;;;;9.80;8.80;;;;;16.62;54.28;98937.47;6061210;28;96701;-62
2023/05/22 04:19:00;;;;;;;;;9.00;8.00;;;;;16.63;53.86;98939.94;6072716;28;96708;-62
2023/05/22 04:22:05;;;;;;;;;10.00;9.00;;;;;16.63;53.85;98936.41;6063321;28;96565;-62
2023/05/22 04:25:09;;;;;;;;;10.00;10.00;;;;;16.69;54.07;98941.63;6065912;28;97047;-63
2023/05/22 04:28:12;;;;;;;;;10.60;10.00;;;;;16.75;53.47;98946.03;6065902;28;96557;-62
2023/05/22 04:31:15;;;;;;;;;9.00;8.00;;;;;16.88;53.48;98950.22;6047208;28;97028;-62
2023/05/22 04:34:19;;;;;;;;;9.60;9.00;;;;;17.03;53.12;98941.34;6063348;28;96411;-63
2023/05/22 04:37:25;;;;;;;;;7.60;7.20;;;;;17.03;52.47;98931.25;6077980;28;96656;-62
2023/05/22 04:40:32;;;;;;;;;9.00;8.00;;;;;17.24;51.96;98927.59;6064746;28;96733;-62
2023/05/22 04:43:37;;;;;;;;;8.00;7.20;;;;;17.34;51.36;98943.19;6075826;28;96479;-62
2023/05/22 04:46:42;;;;;;;;;8.80;7.80;;;;;17.41;51.17;98929.28;6080625;28;96442;-62
2023/05/22 04:49:46;;;;;;;;;11.00;10.00;;;;;17.51;50.78;98934.78;6068202;28;96265;-62
2023/05/22 04:52:52;;;;;;;;;8.25;8.00;;;;;17.63;50.60;98930.81;6065696;28;96564;-62
2023/05/22 04:55:56;;;;;;;;;10.60;10.00;;;;;17.66;49.76;98930.28;6049114;28;98020;-62
2023/05/22 04:59:00;;;;;;;;;10.00;9.00;;;;;17.86;49.38;98940.44;6065622;28;96671;-62
2023/05/22 05:02:03;;;;;;;;;8.00;8.00;;;;;17.90;49.26;98938.81;6063762;28;97732;-62
2023/05/22 05:05:07;;;;;;;;;7.00;7.00;;;;;17.85;48.73;98927.88;6070908;28;96886;-62
2023/05/22 05:08:12;;;;;;;;;10.00;9.00;;;;;18.02;49.51;98933.94;6081836;28;96397;-62
2023/05/22 05:11:15;;;;;;;;;10.00;9.00;;;;;18.23;49.30;98939.47;6065729;28;96375;-62
2023/05/22 05:14:19;;;;;;;;;10.40;9.40;;;;;18.22;48.40;98930.44;6070261;28;96960;-62
2023/05/22 05:17:22;;;;;;;;;9.80;9.80;;;;;18.36;48.40;98938.91;6090579;28;96491;-62
2023/05/22 05:20:26;;;;;;;;;6.00;6.00;;;;;18.36;48.16;98933.47;6087616;28;97040;-62
2023/05/22 05:23:31;;;;;;;;;7.40;7.00;;;;;18.46;48.77;98931.56;6063625;28;96663;-62
2023/05/22 05:26:34;;;;;;;;;10.00;9.00;;;;;18.52;48.31;98927.72;6062213;28;96808;-62
2023/05/22 05:29:38;;;;;;;;;9.00;8.00;;;;;18.66;48.48;98921.78;6056494;28;96327;-63
2023/05/22 05:32:49;;;;;;;;;11.40;8.40;;;;;18.86;47.59;98924.50;6064662;28;96444;-62
2023/05/22 05:36:05;;;;;;;;;8.00;6.60;;;;;18.96;47.53;98930.75;6059638;28;96943;-63
2023/05/22 05:39:12;;;;;;;;;9.50;9.00;;;;;19.12;47.14;98936.19;6050730;28;96922;-62
2023/05/22 05:42:16;;;;;;;;;7.40;6.40;;;;;18.99;46.35;98932.13;6059222;28;96456;-62
2023/05/22 05:45:21;;;;;;;;;8.00;7.40;;;;;19.18;46.38;98944.13;6072096;28;96683;-62
2023/05/22 05:48:25;;;;;;;;;7.00;7.00;;;;;19.21;46.92;98926.34;6071824;28;96513;-62
2023/05/22 05:51:29;;;;;;;;;8.00;7.20;;;;;19.22;46.81;98922.53;6083969;28;96471;-62
2023/05/22 05:54:34;;;;;;;;;8.60;8.60;;;;;19.41;47.33;98927.13;6095346;28;96582;-62
2023/05/22 05:57:45;;;;;;;;;7.40;7.00;;;;;19.36;46.24;98918.09;6056854;28;96428;-62
2023/05/22 06:00:56;;;;;;;;;8.00;7.00;;;;;19.55;47.32;98927.38;6036560;28;97267;-62
2023/05/22 06:04:01;;;;;;;;;7.00;6.00;;;;;19.84;46.62;98925.59;6071878;28;96816;-62
2023/05/22 06:07:07;;;;;;;;;7.00;6.00;;;;;19.99;46.28;98924.72;6063100;28;96797;-60
2023/05/22 06:10:21;;;;;;;;;6.00;5.60;;;;;20.14;43.87;98921.88;6064216;28;97200;-59
2023/05/22 06:13:31;;;;;;;;;7.00;6.60;;;;;20.43;45.90;98923.94;6064929;28;96856;-59
2023/05/22 06:16:35;;;;;;;;;8.50;8.00;;;;;20.54;44.60;98928.22;6063894;28;96748;-59
2023/05/22 06:19:39;;;;;;;;;9.00;7.60;;;;;20.80;44.79;98913.22;6064083;28;96526;-60
2023/05/22 06:22:43;;;;;;;;;7.00;6.20;;;;;20.82;42.66;98918.44;6064446;28;96569;-59
2023/05/22 06:25:48;;;;;;;;;9.50;8.50;;;;;20.82;43.04;98921.16;6066959;28;96789;-59
2023/05/22 06:28:52;;;;;;;;;10.00;9.00;;;;;20.88;43.76;98923.56;6057911;28;96885;-59
2023/05/22 06:31:57;;;;;;;;;10.00;9.00;;;;;21.01;43.47;98916.59;6068621;28;96874;-59
2023/05/22 06:35:01;;;;;;;;;9.00;9.00;;;;;21.15;42.31;98926.63;6069988;28;96473;-59
2023/05/22 06:38:05;;;;;;;;;9.00;8.00;;;;;21.16;42.19;98922.75;6052421;28;98619;-59
2023/05/22 06:41:10;;;;;;;;;8.00;7.00;;;;;21.28;43.17;98921.56;6068583;28;96314;-59
2023/05/22 06:44:14;;;;;;;;;7.00;6.00;;;;;21.56;42.87;98913.28;6068531;28;97771;-59
2023/05/22 06:47:17;;;;;;;;;7.50;7.50;;;;;21.83;43.56;98907.19;6061235;28;96183;-59
2023/05/22 06:50:21;;;;;;;;;8.20;8.00;;;;;22.22;42.37;98926.16;6055436;28;97072;-59
2023/05/22 06:53:26;;;;;;;;;7.00;7.00;;;;;22.54;42.11;98919.91;6057133;28;96489;-60
2023/05/22 06:56:31;;;;;;;;;10.40;7.40;;;;;22.74;40.81;98913.28;6039521;28;96759;-59
2023/05/22 06:59:41;;;;;;;;;9.00;8.00;;;;;22.89;39.63;98913.84;6054933;28;96316;-60
2023/05/22 07:03:10;;;;;;;;;6.00;6.00;;;;;23.18;41.64;98923.78;6039675;28;97180;-59
2023/05/22 07:06:21;;;;;;;;;6.60;6.60;;;;;23.25;38.63;98922.28;6046899;28;96408;-59
2023/05/22 07:09:25;;;;;;;;;5.40;5.40;;;;;23.38;40.34;98923.41;6045780;28;96255;-60
2023/05/22 07:12:30;;;;;;;;;8.00;7.00;;;;;23.58;40.19;98917.53;6044435;28;96566;-59
2023/05/22 07:15:33;;;;;;;;;7.00;6.00;;;;;23.86;39.42;98923.03;6044411;28;96837;-60
2023/05/22 07:18:39;;;;;;;;;6.00;6.00;;;;;23.92;39.59;98916.28;6044544;28;96904;-59
2023/05/22 07:21:42;;;;;;;;;7.80;7.00;;;;;24.09;38.78;98913.72;6043777;28;96615;-60
2023/05/22 07:24:47;;;;;;;;;7.00;5.40;;;;;24.22;37.87;98912.09;6043837;28;96585;-60
2023/05/22 07:27:54;;;;;;;;;7.00;6.20;;;;;24.47;38.77;98914.25;6047994;28;96851;-59
2023/05/22 07:30:59;;;;;;;;;6.00;6.00;;;;;24.81;37.95;98913.69;6055149;28;96639;-59
2023/05/22 07:34:02;;;;;;;;;8.60;7.00;;;;;25.18;37.92;98907.75;6056176;28;96601;-59
2023/05/22 07:37:08;;;;;;;;;6.00;5.00;;;;;25.41;36.92;98912.09;6053320;28;97003;-60
2023/05/22 07:40:12;;;;;;;;;6.00;6.00;;;;;25.70;36.15;98914.38;6054497;28;96749;-59
2023/05/22 07:43:17;;;;;;;;;8.00;7.00;;;;;25.82;34.61;98910.97;6057038;28;96997;-60
2023/05/22 07:46:20;;;;;;;;;5.50;5.00;;;;;25.76;33.82;98906.72;6053424;28;96920;-60
2023/05/22 07:49:43;;;;;;;;;6.00;6.00;;;;;25.77;34.72;98911.94;6056430;28;96379;-59
2023/05/22 07:52:47;;;;;;;;;7.60;7.60;;;;;26.05;36.08;98912.47;6058518;28;96459;-59
2023/05/22 07:55:51;;;;;;;;;5.00;4.80;;;;;26.26;35.23;98918.22;6067077;28;96903;-60
2023/05/22 07:58:56;;;;;;;;;7.00;6.50;;;;;26.26;34.13;98923.75;6062120;28;97027;-59
2023/05/22 08:02:01;;;;;;;;;6.40;6.00;;;;;26.24;33.06;98923.28;6055836;28;96555;-59
2023/05/22 08:05:05;;;;;;;;;6.00;5.20;;;;;26.45;33.98;98917.91;6056107;28;96453;-59
2023/05/22 08:08:10;;;;;;;;;6.40;5.40;;;;;26.44;33.23;98913.53;6073448;28;96250;-60
2023/05/22 08:11:14;;;;;;;;;6.60;5.00;;;;;26.61;33.47;98917.09;6079643;28;96457;-60
2023/05/22 08:14:21;;;;;;;;;6.00;6.00;;;;;26.52;31.86;98908.00;6079730;28;96717;-60
2023/05/22 08:17:24;;;;;;;;;6.00;5.60;;;;;26.52;32.21;98913.53;6079040;28;96532;-58
2023/05/22 08:20:28;;;;;;;;;4.00;4.00;;;;;26.52;30.81;98890.59;6103327;28;96382;-58
2023/05/22 08:23:31;;;;;;;;;5.00;5.00;;;;;26.69;31.46;98913.50;6104658;28;96263;-58
2023/05/22 08:26:34;;;;;;;;;5.00;4.75;;;;;27.07;32.44;98904.53;6105448;28;96360;-58
2023/05/22 08:29:39;;;;;;;;;5.00;5.00;;;;;27.19;30.88;98904.66;6105384;28;96312;-58
2023/05/22 08:32:43;;;;;;;;;5.80;5.80;;;;;27.12;30.21;98904.38;6105760;28;96788;-58
2023/05/22 08:35:46;;;;;;;;;6.00;6.00;;;;;27.41;31.98;98904.44;6103660;28;96430;-58
2023/05/22 08:38:49;;;;;;;;;7.60;7.00;;;;;27.57;30.59;98902.75;6103869;28;96360;-58
2023/05/22 08:41:53;;;;;;;;;7.40;6.00;;;;;27.64;29.10;98910.53;6105286;28;96255;-58
2023/05/22 08:44:59;;;;;;;;;6.00;5.00;;;;;27.83;29.37;98902.59;6095175;28;97626;-58
2023/05/22 08:48:05;;;;;;;;;4.00;4.00;;;;;27.65;28.74;98897.50;6117356;28;96321;-58
2023/05/22 08:51:13;;;;;;;;;4.40;4.40;;;;;27.46;29.32;98895.13;6117668;28;96678;-58
2023/05/22 08:54:21;;;;;;;;;5.75;5.00;;;;;27.65;30.38;98903.03;6118407;28;96342;-58
2023/05/22 08:57:25;;;;;;;;;4.00;4.00;;;;;27.82;30.38;98897.41;6116964;28;96260;-58
2023/05/22 09:00:31;;;;;;;;;5.00;5.00;;;;;27.97;29.43;98894.03;6116752;28;96295;-58
2023/05/22 09:03:36;;;;;;;;;6.00;6.00;;;;;27.74;28.44;98885.22;6099218;28;96285;-58
2023/05/22 09:06:39;;;;;;;;;6.75;5.50;;;;;27.93;29.80;98891.16;6115818;28;96276;-57
2023/05/22 09:09:42;;;;;;;;;7.00;7.00;;;;;27.52;28.47;98899.34;6116386;28;96854;-58
2023/05/22 09:13:03;;;;;;;;;5.50;5.25;;;;;27.86;29.43;98893.63;6097010;28;96600;-59
2023/05/22 09:16:10;;;;;;;;;5.20;5.20;;;;;28.10;29.31;98883.88;6113440;28;96294;-58
2023/05/22 09:19:14;;;;;;;;;4.00;4.00;;;;;28.32;27.58;98883.56;6114687;28;96406;-58
2023/05/22 09:22:18;;;;;;;;;4.60;4.60;;;;;28.32;27.51;98886.31;6096747;28;96706;-59
2023/05/22 09:25:25;;;;;;;;;5.00;5.00;;;;;28.53;28.11;98883.56;6115660;28;96343;-58
2023/05/22 09:28:33;;;;;;;;;5.00;5.00;;;;;28.85;28.32;98880.00;6113934;28;96458;-60
2023/05/22 09:31:45;;;;;;;;;5.60;5.60;;;;;28.62;27.27;98856.53;6116240;28;96378;-58
2023/05/22 09:34:51;;;;;;;;;5.00;4.75;;;;;28.58;26.58;98866.69;6099539;28;96276;-58
2023/05/22 09:37:56;;;;;;;;;7.00;7.00;;;;;28.23;26.70;98869.78;6099745;28;96383;-58
2023/05/22 09:40:59;;;;;;;;;6.60;6.00;;;;;28.61;28.09;98871.56;6117115;28;96213;-58
2023/05/22 09:44:11;;;;;;;;;5.80;5.00;;;;;28.81;27.44;98859.63;6099593;28;98463;-58
2023/05/22 09:47:16;;;;;;;;;5.60;5.60;;;;;28.94;28.13;98869.59;6116444;28;96261;-58
2023/05/22 09:50:20;;;;;;;;;4.50;4.00;;;;;28.79;27.81;98864.69;6115844;28;96307;-58
2023/05/22 09:53:27;;;;;;;;;6.00;5.00;;;;;28.70;28.05;98863.94;6116230;28;96294;-58
2023/05/22 09:56:32;;;;;;;;;6.00;5.00;;;;;28.77;26.90;98865.06;6117269;28;96293;-59
2023/05/22 09:59:44;;;;;;;;;5.00;5.00;;;;;28.42;26.55;98856.22;6119120;28;96805;-59
2023/05/22 10:03:10;;;;;;;;;5.00;5.00;;;;;28.51;27.19;98864.47;6103579;28;96704;-58
2023/05/22 10:06:17;;;;;;;;;6.60;5.00;;;;;28.62;26.43;98859.31;6096441;28;96650;-58
2023/05/22 10:09:29;;;;;;;;;5.40;5.40;;;;;28.88;28.36;98859.09;6097532;28;96394;-58
2023/05/22 10:12:38;;;;;;;;;6.00;5.00;;;;;29.06;27.74;98854.97;6085792;28;96850;-58
2023/05/22 10:15:41;;;;;;;;;5.00;5.00;;;;;29.15;26.05;98842.59;6097269;28;96248;-58
2023/05/22 10:18:49;;;;;;;;;6.60;6.60;;;;;29.35;26.04;98843.69;6097138;28;96455;-58
2023/05/22 10:21:55;;;;;;;;;5.00;5.00;;;;;29.32;27.32;98841.59;6095895;28;96641;-58
2023/05/22 10:25:01;;;;;;;;;6.80;6.80;;;;;29.00;25.78;98845.22;6094860;28;97084;-58
2023/05/22 10:28:05;;;;;;;;;5.00;4.80;;;;;28.68;26.18;98849.63;6096571;28;96255;-58
2023/05/22 10:31:19;;;;;;;;;5.00;4.00;;;;;28.26;26.60;98844.13;6095759;28;96449;-58
2023/05/22 10:34:54;;;;;;;;;6.00;6.00;;;;;28.33;26.73;98838.03;6089862;28;96289;-58
2023/05/22 10:38:15;;;;;;;;;6.75;6.75;;;;;28.49;26.80;98838.22;6095756;28;96288;-59
2023/05/22 10:41:18;;;;;;;;;6.00;6.00;;;;;28.85;25.67;98839.19;6096352;28;96307;-58
2023/05/22 10:44:22;;;;;;;;;4.00;4.00;;;;;28.73;25.10;98838.34;6095844;28;96429;-58
2023/05/22 10:47:26;;;;;;;;;6.50;6.50;;;;;28.95;25.14;98834.34;6094321;28;96266;-58
2023/05/22 10:50:31;;;;;;;;;5.00;5.00;;;;;29.33;25.74;98829.31;6094621;28;96837;-58
2023/05/22 10:53:36;;;;;;;;;6.80;6.00;;;;;29.75;25.03;98831.88;6095219;28;96365;-58
2023/05/22 10:56:41;;;;;;;;;5.00;4.00;;;;;29.76;23.36;98828.75;6079497;28;96274;-59
2023/05/22 10:59:46;;;;;;;;;4.40;4.40;;;;;30.06;24.73;98832.03;6084542;28;96531;-58
2023/05/22 11:02:50;;;;;;;;;6.00;6.00;;;;;30.26;24.00;98821.91;6095259;28;96256;-58
2023/05/22 11:06:00;;;;;;;;;5.00;5.00;;;;;30.30;23.64;98823.63;6093424;28;96633;-58
2023/05/22 11:09:21;;;;;;;;;5.25;5.25;;;;;30.65;23.51;98817.47;6094745;28;96562;-59
2023/05/22 11:12:27;;;;;;;;;6.00;5.80;;;;;30.92;23.23;98813.84;6084009;28;97851;-59
2023/05/22 11:15:32;;;;;;;;;6.00;4.40;;;;;30.86;23.18;98807.75;6093638;28;96739;-59
2023/05/22 11:18:35;;;;;;;;;5.00;5.00;;;;;30.67;21.30;98799.28;6094295;28;96232;-58
2023/05/22 11:21:44;;;;;;;;;6.50;6.00;;;;;30.55;23.57;98804.88;6094694;28;96866;-59
2023/05/22 11:24:48;;;;;;;;;5.00;4.00;;;;;30.71;23.72;98804.94;6091689;28;96327;-58
2023/05/22 11:27:54;;;;;;;;;6.50;6.50;;;;;30.74;22.55;98804.22;6093282;28;96348;-59
2023/05/22 11:30:59;;;;;;;;;6.50;6.00;;;;;30.66;21.28;98796.84;6094476;28;96337;-59
2023/05/22 11:34:03;;;;;;;;;5.50;5.50;;;;;30.41;22.93;98790.56;6094281;28;96532;-58
2023/05/22 11:37:09;;;;;;;;;5.20;4.80;;;;;30.03;21.33;98797.44;6095317;28;96868;-58
2023/05/22 11:40:15;;;;;;;;;5.20;5.20;;;;;29.83;21.75;98786.44;6096343;28;96273;-58
2023/05/22 11:43:28;;;;;;;;;5.00;5.00;;;;;29.87;23.40;98792.91;6095867;28;96908;-58
2023/05/22 11:46:32;;;;;;;;;4.00;4.00;;;;;30.03;22.87;98791.88;6095144;28;96387;-59
2023/05/22 11:49:35;;;;;;;;;7.00;7.00;;;;;29.83;20.97;98795.59;6091120;28;96380;-58
2023/05/22 11:52:42;;;;;;;;;5.00;5.00;;;;;30.11;22.53;98796.47;6093518;28;96558;-58
2023/05/22 11:55:48;;;;;;;;;6.00;6.00;;;;;30.33;22.90;98792.34;6094334;28;97128;-59
2023/05/22 11:58:51;;;;;;;;;4.00;4.00;;;;;30.49;22.64;98786.84;6094415;28;96239;-60
2023/05/22 12:01:55;;;;;;;;;7.00;7.00;;;;;30.67;22.77;98792.91;6094198;28;96504;-58
2023/05/22 12:04:58;;;;;;;;;5.00;5.00;;;;;30.89;22.81;98792.28;6099310;28;96491;-58
2023/05/22 12:08:03;;;;;;;;;5.25;5.00;;;;;31.05;21.69;98790.34;6119548;28;96470;-59
2023/05/22 12:11:07;;;;;;;;;6.00;4.50;;;;;31.22;22.19;98791.97;6119205;28;96953;-58
2023/05/22 12:14:11;;;;;;;;;6.75;6.00;;;;;31.23;22.02;98780.44;6117846;28;96165;-58
2023/05/22 12:17:16;;;;;;;;;5.50;5.00;;;;;31.27;21.37;98780.56;6119233;28;96360;-59
2023/05/22 12:20:20;;;;;;;;;4.00;4.00;;;;;31.24;20.84;98784.88;6119116;28;97029;-58
2023/05/22 12:23:25;;;;;;;;;6.00;6.00;;;;;31.35;22.59;98782.34;6099992;28;98402;-59
2023/05/22 12:26:29;;;;;;;;;5.75;5.00;;;;;31.41;22.58;98775.31;6119201;28;96327;-58
2023/05/22 12:29:33;;;;;;;;;5.80;4.80;;;;;31.62;22.83;98773.03;6117203;28;96745;-58
2023/05/22 12:32:36;;;;;;;;;6.60;6.00;;;;;31.47;21.73;98768.31;6116431;28;96256;-59
2023/05/22 12:35:40;;;;;;;;;7.00;6.00;;;;;31.05;21.38;98768.06;6115970;28;96365;-58
2023/05/22 12:38:45;;;;;;;;;6.80;6.00;;;;;30.64;22.84;98766.59;6115295;28;96369;-59
2023/05/22 12:41:48;;;;;;;;;5.20;5.00;;;;;30.65;23.30;98753.47;6097297;28;96688;-59
2023/05/22 12:44:53;;;;;;;;;5.00;4.60;;;;;30.75;23.17;98752.94;6098767;28;96277;-58
2023/05/22 12:47:57;;;;;;;;;8.00;7.00;;;;;30.87;23.86;98748.13;6100135;28;97095;-58
2023/05/22 12:51:00;;;;;;;;;6.60;6.60;;;;;31.10;22.92;98755.84;6117723;28;96274;-59
2023/05/22 12:54:05;;;;;;;;;8.50;8.50;;;;;30.83;21.83;98746.41;6117066;28;96308;-58
2023/05/22 12:57:09;;;;;;;;;7.50;7.00;;;;;30.45;22.97;98741.38;6117234;28;96365;-58
2023/05/22 13:00:13;;;;;;;;;5.60;5.60;;;;;30.69;23.28;98757.97;6117382;28;96165;-58
2023/05/22 13:03:17;;;;;;;;;7.60;5.60;;;;;30.46;22.14;98752.19;6116921;28;96821;-58
2023/05/22 13:06:20;;;;;;;;;6.60;6.60;;;;;30.53;22.06;98748.81;6116696;28;96301;-58
2023/05/22 13:09:25;;;;;;;;;5.00;5.00;;;;;30.56;22.81;98745.31;6101611;28;96802;-61
2023/05/22 13:12:30;;;;;;;;;6.40;6.00;;;;;30.31;23.19;98744.59;6073062;28;98521;-61
2023/05/22 13:15:34;;;;;;;;;9.00;8.00;;;;;30.21;22.89;98739.53;6090573;28;96469;-61
2023/05/22 13:18:38;;;;;;;;;6.80;6.20;;;;;30.34;24.00;98743.09;6089877;28;97187;-61
2023/05/22 13:21:42;;;;;;;;;9.00;8.40;;;;;30.34;23.23;98732.78;6090530;28;96297;-61
2023/05/22 13:24:47;;;;;;;;;6.00;6.00;;;;;30.27;23.57;98734.53;6089389;28;97021;-61
2023/05/22 13:27:50;;;;;;;;;7.00;7.00;;;;;30.36;24.23;98733.22;6089715;28;96377;-61
2023/05/22 13:30:53;;;;;;;;;5.00;5.00;;;;;30.44;23.99;98729.47;6090053;28;96455;-61
2023/05/22 13:33:57;;;;;;;;;6.80;6.80;;;;;30.59;23.46;98724.31;6079663;28;96305;-61
2023/05/22 13:37:02;;;;;;;;;6.00;6.00;;;;;30.48;23.06;98730.41;6092015;28;96264;-61
2023/05/22 13:40:09;;;;;;;;;6.20;5.20;;;;;30.51;24.35;98718.56;6093146;28;96946;-61
2023/05/22 13:43:12;;;;;;;;;8.00;7.00;;;;;29.75;23.89;98720.72;6093400;28;96588;-61
2023/05/22 13:46:16;;;;;;;;;6.80;5.80;;;;;29.77;25.16;98710.03;6093019;28;96622;-61
2023/05/22 13:49:20;;;;;;;;;6.50;6.50;;;;;29.83;24.03;98711.41;6093670;28;96497;-61
2023/05/22 13:52:24;;;;;;;;;6.00;6.00;;;;;29.90;24.42;98711.66;6094337;28;96572;-61
2023/05/22 13:55:28;;;;;;;;;9.00;8.80;;;;;29.66;24.62;98704.97;6094358;28;96959;-61
2023/05/22 13:58:32;;;;;;;;;4.50;4.25;;;;;29.64;24.16;98712.88;6094249;28;96489;-61
2023/05/22 14:01:35;;;;;;;;;7.00;7.00;;;;;29.48;24.55;98698.09;6105783;28;96682;-61
2023/05/22 14:04:39;;;;;;;;;6.60;6.60;;;;;29.33;24.39;98696.03;6094355;28;96917;-61
2023/05/22 14:07:42;;;;;;;;;7.00;6.00;;;;;29.24;24.54;98692.53;6076100;28;96695;-61
2023/05/22 14:10:47;;;;;;;;;9.00;9.00;;;;;29.02;24.67;98690.28;6094273;28;97213;-61
2023/05/22 14:13:51;;;;;;;;;9.60;9.60;;;;;28.69;25.19;98693.09;6094171;28;97042;-61
2023/05/22 14:16:54;;;;;;;;;9.20;7.80;;;;;28.23;25.18;98683.22;6093769;28;96284;-61
2023/05/22 14:19:58;;;;;;;;;9.00;8.00;;;;;28.40;26.24;98680.22;6084981;28;96705;-61
2023/05/22 14:23:02;;;;;;;;;9.25;9.00;;;;;28.31;26.01;98685.88;6093749;28;96715;-61
2023/05/22 14:26:06;;;;;;;;;9.00;8.80;;;;;27.95;25.30;98683.00;6093875;28;96246;-61
2023/05/22 14:29:10;;;;;;;;;9.25;8.25;;;;;27.84;25.76;98670.69;6093655;28;96863;-61